sensor_id;sensor_type;location;lat;lon;timestamp;pressure;altitude;pressure_sealevel;temperature;humidity
62708;BME280;48769;51.624;5.886;2023-02-13T00:00:40;103565.78;;;7.83;100.00
62708;BME280;48769;51.624;5.886;2023-02-13T00:03:06;103557.88;;;7.83;100.00
62708;BME280;48769;51.624;5.886;2023-02-13T00:05:31;103560.50;;;7.80;100.00
62708;BME280;48769;51.624;5.886;2023-02-13T00:07:56;103552.59;;;7.77;100.00
62708;BME280;48769;51.624;5.886;2023-02-13T00:10:21;103551.69;;;7.73;100.00
62708;BME280;48769;51.624;5.886;2023-02-13T00:12:46;103549.09;;;7.75;100.00
62708;BME280;48769;51.624;5.886;2023-02-13T00:15:12;103548.19;;;7.72;100.00
62708;BME280;48769;51.624;5.886;2023-02-13T00:17:37;103541.19;;;7.71;100.00
62708;BME280;48769;51.624;5.886;2023-02-13T00:20:02;103551.72;;;7.71;100.00
62708;BME280;48769;51.624;5.886;2023-02-13T00:22:28;103552.59;;;7.70;100.00
62708;BME280;48769;51.624;5.886;2023-02-13T00:24:53;103551.69;;;7.65;100.00
62708;BME280;48769;51.624;5.886;2023-02-13T00:27:18;103539.41;;;7.61;100.00
62708;BME280;48769;51.624;5.886;2023-02-13T00:29:44;103541.16;;;7.61;100.00
62708;BME280;48769;51.624;5.886;2023-02-13T00:32:09;103539.38;;;7.57;100.00
62708;BME280;48769;51.624;5.886;2023-02-13T00:34:34;103544.66;;;7.61;100.00
62708;BME280;48769;51.624;5.886;2023-02-13T00:37:00;103545.53;;;7.63;100.00
62708;BME280;48769;51.624;5.886;2023-02-13T00:39:26;103545.53;;;7.59;100.00
62708;BME280;48769;51.624;5.886;2023-02-13T00:41:51;103540.25;;;7.59;100.00
62708;BME280;48769;51.624;5.886;2023-02-13T00:44:16;103544.66;;;7.61;100.00
62708;BME280;48769;51.624;5.886;2023-02-13T00:46:41;103537.63;;;7.63;100.00
62708;BME280;48769;51.624;5.886;2023-02-13T00:49:06;103541.16;;;7.62;100.00
62708;BME280;48769;51.624;5.886;2023-02-13T00:51:32;103534.16;;;7.64;100.00
62708;BME280;48769;51.624;5.886;2023-02-13T00:53:57;103548.19;;;7.69;100.00
62708;BME280;48769;51.624;5.886;2023-02-13T00:56:22;103540.28;;;7.66;100.00
62708;BME280;48769;51.624;5.886;2023-02-13T00:58:47;103538.53;;;7.68;100.00
62708;BME280;48769;51.624;5.886;2023-02-13T01:01:13;103539.41;;;7.69;100.00
62708;BME280;48769;51.624;5.886;2023-02-13T01:03:38;103540.28;;;7.69;100.00
62708;BME280;48769;51.624;5.886;2023-02-13T01:06:03;103545.56;;;7.71;100.00
62708;BME280;48769;51.624;5.886;2023-02-13T01:08:29;103548.22;;;7.71;100.00
62708;BME280;48769;51.624;5.886;2023-02-13T01:10:54;103544.69;;;7.72;100.00
62708;BME280;48769;51.624;5.886;2023-02-13T01:13:20;103546.47;;;7.75;100.00
62708;BME280;48769;51.624;5.886;2023-02-13T01:15:45;103545.59;;;7.77;100.00
62708;BME280;48769;51.624;5.886;2023-02-13T01:18:15;103545.63;;;7.80;100.00
62708;BME280;48769;51.624;5.886;2023-02-13T01:20:40;103543.84;;;7.82;100.00
62708;BME280;48769;51.624;5.886;2023-02-13T01:23:06;103543.84;;;7.82;100.00
62708;BME280;48769;51.624;5.886;2023-02-13T01:25:31;103551.75;;;7.82;100.00
62708;BME280;48769;51.624;5.886;2023-02-13T01:27:57;103548.22;;;7.79;100.00
62708;BME280;48769;51.624;5.886;2023-02-13T01:30:22;103549.97;;;7.70;100.00
62708;BME280;48769;51.624;5.886;2023-02-13T01:32:47;103544.69;;;7.70;100.00
62708;BME280;48769;51.624;5.886;2023-02-13T01:35:13;103550.84;;;7.76;100.00
62708;BME280;48769;51.624;5.886;2023-02-13T01:37:38;103547.34;;;7.75;100.00
62708;BME280;48769;51.624;5.886;2023-02-13T01:40:04;103546.47;;;7.78;100.00
62708;BME280;48769;51.624;5.886;2023-02-13T01:42:30;103542.97;;;7.74;100.00
62708;BME280;48769;51.624;5.886;2023-02-13T01:44:57;103542.91;;;7.69;100.00
62708;BME280;48769;51.624;5.886;2023-02-13T01:52:41;103546.41;;;7.65;100.00
62708;BME280;48769;51.624;5.886;2023-02-13T01:55:08;103540.28;;;7.66;100.00
62708;BME280;48769;51.624;5.886;2023-02-13T01:57:34;103539.41;;;7.61;100.00
62708;BME280;48769;51.624;5.886;2023-02-13T02:00:10;103536.78;;;7.61;100.00
62708;BME280;48769;51.624;5.886;2023-02-13T02:02:37;103533.28;;;7.65;100.00
62708;BME280;48769;51.624;5.886;2023-02-13T02:05:05;103538.53;;;7.68;100.00
62708;BME280;48769;51.624;5.886;2023-02-13T02:07:30;103529.78;;;7.71;100.00
62708;BME280;48769;51.624;5.886;2023-02-13T02:10:03;103525.41;;;7.71;100.00
62708;BME280;48769;51.624;5.886;2023-02-13T02:12:38;103525.38;;;7.65;100.00
62708;BME280;48769;51.624;5.886;2023-02-13T02:15:06;103523.63;;;7.64;100.00
62708;BME280;48769;51.624;5.886;2023-02-13T02:17:31;103526.28;;;7.67;100.00
62708;BME280;48769;51.624;5.886;2023-02-13T02:20:00;103521.88;;;7.66;100.00
62708;BME280;48769;51.624;5.886;2023-02-13T02:30:22;103524.47;;;7.59;100.00
62708;BME280;48769;51.624;5.886;2023-02-13T02:38:24;103517.44;;;7.53;100.00
62708;BME280;48769;51.624;5.886;2023-02-13T02:40:49;103516.56;;;7.51;100.00
62708;BME280;48769;51.624;5.886;2023-02-13T02:46:03;103512.16;;;7.45;100.00
62708;BME280;48769;51.624;5.886;2023-02-13T02:51:51;103512.13;;;7.38;100.00
62708;BME280;48769;51.624;5.886;2023-02-13T02:57:23;103519.09;;;7.33;100.00
62708;BME280;48769;51.624;5.886;2023-02-13T02:59:48;103515.56;;;7.31;100.00
62708;BME280;48769;51.624;5.886;2023-02-13T03:02:33;103515.53;;;7.24;100.00
62708;BME280;48769;51.624;5.886;2023-02-13T03:05:26;103510.25;;;7.15;100.00
62708;BME280;48769;51.624;5.886;2023-02-13T03:08:12;103515.47;;;7.11;100.00
62708;BME280;48769;51.624;5.886;2023-02-13T03:10:38;103517.22;;;7.06;100.00
62708;BME280;48769;51.624;5.886;2023-02-13T03:15:55;103511.03;;;6.99;100.00
62708;BME280;48769;51.624;5.886;2023-02-13T03:18:40;103518.00;;;6.94;100.00
62708;BME280;48769;51.624;5.886;2023-02-13T03:24:27;103516.13;;;6.77;100.00
62708;BME280;48769;51.624;5.886;2023-02-13T03:27:03;103518.69;;;6.68;100.00
62708;BME280;48769;51.624;5.886;2023-02-13T03:35:14;103508.88;;;6.46;100.00
62708;BME280;48769;51.624;5.886;2023-02-13T03:38:04;103511.44;;;6.40;100.00
62708;BME280;48769;51.624;5.886;2023-02-13T03:43:28;103511.38;;;6.27;100.00
62708;BME280;48769;51.624;5.886;2023-02-13T03:45:56;103504.31;;;6.22;100.00
62708;BME280;48769;51.624;5.886;2023-02-13T03:48:23;103505.13;;;6.16;100.00
62708;BME280;48769;51.624;5.886;2023-02-13T03:51:08;103508.59;;;6.12;100.00
62708;BME280;48769;51.624;5.886;2023-02-13T03:53:34;103508.50;;;6.03;100.00
62708;BME280;48769;51.624;5.886;2023-02-13T03:56:01;103518.91;;;5.97;100.00
62708;BME280;48769;51.624;5.886;2023-02-13T03:58:47;103514.41;;;5.86;100.00
62708;BME280;48769;51.624;5.886;2023-02-13T04:01:33;103518.72;;;5.80;100.00
62708;BME280;48769;51.624;5.886;2023-02-13T04:04:08;103512.50;;;5.73;100.00
62708;BME280;48769;51.624;5.886;2023-02-13T04:09:18;103511.59;;;5.71;100.00
62708;BME280;48769;51.624;5.886;2023-02-13T04:14:39;103517.59;;;5.61;100.00
62708;BME280;48769;51.624;5.886;2023-02-13T04:17:10;103514.06;;;5.57;100.00
62708;BME280;48769;51.624;5.886;2023-02-13T04:19:38;103518.44;;;5.58;100.00
62708;BME280;48769;51.624;5.886;2023-02-13T04:22:03;103521.94;;;5.56;100.00
62708;BME280;48769;51.624;5.886;2023-02-13T04:24:29;103516.56;;;5.48;100.00
62708;BME280;48769;51.624;5.886;2023-02-13T04:26:54;103521.78;;;5.44;100.00
62708;BME280;48769;51.624;5.886;2023-02-13T04:29:20;103520.00;;;5.43;100.00
62708;BME280;48769;51.624;5.886;2023-02-13T04:31:46;103520.00;;;5.43;100.00
62708;BME280;48769;51.624;5.886;2023-02-13T04:34:12;103524.31;;;5.37;100.00
62708;BME280;48769;51.624;5.886;2023-02-13T04:36:37;103516.41;;;5.34;100.00
62708;BME280;48769;51.624;5.886;2023-02-13T04:39:02;103526.75;;;5.25;100.00
62708;BME280;48769;51.624;5.886;2023-02-13T04:41:27;103517.00;;;5.15;100.00
62708;BME280;48769;51.624;5.886;2023-02-13T04:43:53;103516.06;;;5.10;100.00
62708;BME280;48769;51.624;5.886;2023-02-13T04:46:18;103512.50;;;5.05;100.00
62708;BME280;48769;51.624;5.886;2023-02-13T04:48:43;103515.13;;;5.05;100.00
62708;BME280;48769;51.624;5.886;2023-02-13T04:51:08;103508.16;;;5.07;100.00
62708;BME280;48769;51.624;5.886;2023-02-13T04:53:33;103509.78;;;4.99;100.00
62708;BME280;48769;51.624;5.886;2023-02-13T04:56:02;103500.09;;;4.91;100.00
62708;BME280;48769;51.624;5.886;2023-02-13T04:58:27;103507.09;;;4.92;100.00
62708;BME280;48769;51.624;5.886;2023-02-13T05:00:52;103498.34;;;4.93;100.00
62708;BME280;48769;51.624;5.886;2023-02-13T05:03:18;103498.25;;;4.87;100.00
62708;BME280;48769;51.624;5.886;2023-02-13T05:05:43;103492.09;;;4.84;100.00
62708;BME280;48769;51.624;5.886;2023-02-13T05:08:08;103491.28;;;4.86;100.00
62708;BME280;48769;51.624;5.886;2023-02-13T05:10:34;103498.31;;;4.90;100.00
62708;BME280;48769;51.624;5.886;2023-02-13T05:12:59;103494.84;;;4.91;100.00
62708;BME280;48769;51.624;5.886;2023-02-13T05:15:24;103493.97;;;4.92;100.00
62708;BME280;48769;51.624;5.886;2023-02-13T05:17:50;103494.91;;;4.95;100.00
62708;BME280;48769;51.624;5.886;2023-02-13T05:20:15;103501.91;;;4.97;100.00
62708;BME280;48769;51.624;5.886;2023-02-13T05:22:44;103497.56;;;4.98;100.00
62708;BME280;48769;51.624;5.886;2023-02-13T05:25:28;103502.75;;;4.96;100.00
62708;BME280;48769;51.624;5.886;2023-02-13T05:27:53;103500.19;;;4.98;100.00
62708;BME280;48769;51.624;5.886;2023-02-13T05:30:18;103499.28;;;4.97;100.00
62708;BME280;48769;51.624;5.886;2023-02-13T05:32:44;103494.03;;;4.94;100.00
62708;BME280;48769;51.624;5.886;2023-02-13T05:35:10;103486.06;;;4.89;100.00
62708;BME280;48769;51.624;5.886;2023-02-13T05:37:35;103491.25;;;4.85;100.00
62708;BME280;48769;51.624;5.886;2023-02-13T05:40:00;103493.00;;;4.84;100.00
62708;BME280;48769;51.624;5.886;2023-02-13T05:42:25;103490.41;;;4.86;100.00
62708;BME280;48769;51.624;5.886;2023-02-13T05:44:51;103492.09;;;4.82;100.00
62708;BME280;48769;51.624;5.886;2023-02-13T05:47:16;103481.56;;;4.78;100.00
62708;BME280;48769;51.624;5.886;2023-02-13T05:49:41;103485.06;;;4.78;100.00
62708;BME280;48769;51.624;5.886;2023-02-13T05:52:06;103492.03;;;4.79;100.00
62708;BME280;48769;51.624;5.886;2023-02-13T05:54:31;103482.44;;;4.78;100.00
62708;BME280;48769;51.624;5.886;2023-02-13T05:56:57;103485.00;;;4.77;100.00
62708;BME280;48769;51.624;5.886;2023-02-13T05:59:22;103480.66;;;4.77;100.00
62708;BME280;48769;51.624;5.886;2023-02-13T06:01:47;103483.31;;;4.79;100.00
62708;BME280;48769;51.624;5.886;2023-02-13T06:04:12;103485.06;;;4.80;100.00
62708;BME280;48769;51.624;5.886;2023-02-13T06:06:38;103482.44;;;4.78;100.00
62708;BME280;48769;51.624;5.886;2023-02-13T06:09:03;103489.31;;;4.73;100.00
62708;BME280;48769;51.624;5.886;2023-02-13T06:11:28;103491.09;;;4.74;100.00
62708;BME280;48769;51.624;5.886;2023-02-13T06:13:53;103497.19;;;4.72;100.00
62708;BME280;48769;51.624;5.886;2023-02-13T06:16:18;103498.00;;;4.69;100.00
62708;BME280;48769;51.624;5.886;2023-02-13T06:18:44;103488.34;;;4.66;100.00
62708;BME280;48769;51.624;5.886;2023-02-13T06:21:09;103491.84;;;4.65;100.00
62708;BME280;48769;51.624;5.886;2023-02-13T06:23:34;103483.06;;;4.63;100.00
62708;BME280;48769;51.624;5.886;2023-02-13T06:26:06;103487.38;;;4.60;100.00
62708;BME280;48769;51.624;5.886;2023-02-13T06:28:32;103483.78;;;4.55;100.00
62708;BME280;48769;51.624;5.886;2023-02-13T06:30:57;103486.34;;;4.50;100.00
62708;BME280;48769;51.624;5.886;2023-02-13T06:33:23;103488.06;;;4.48;100.00
62708;BME280;48769;51.624;5.886;2023-02-13T06:35:48;103481.78;;;4.38;100.00
62708;BME280;48769;51.624;5.886;2023-02-13T06:38:13;103481.66;;;4.29;100.00
62708;BME280;48769;51.624;5.886;2023-02-13T06:40:39;103486.72;;;4.20;100.00
62708;BME280;48769;51.624;5.886;2023-02-13T06:43:04;103484.00;;;4.15;100.00
62708;BME280;48769;51.624;5.886;2023-02-13T06:45:29;103480.50;;;4.13;100.00
62708;BME280;48769;51.624;5.886;2023-02-13T06:47:54;103490.88;;;4.09;100.00
62708;BME280;48769;51.624;5.886;2023-02-13T06:50:20;103489.06;;;4.06;100.00
62708;BME280;48769;51.624;5.886;2023-02-13T06:52:48;103500.41;;;4.05;100.00
62708;BME280;48769;51.624;5.886;2023-02-13T06:55:14;103496.94;;;4.06;100.00
62708;BME280;48769;51.624;5.886;2023-02-13T06:57:40;103501.34;;;4.09;100.00
62708;BME280;48769;51.624;5.886;2023-02-13T07:00:05;103491.03;;;4.16;100.00
62708;BME280;48769;51.624;5.886;2023-02-13T07:02:31;103491.97;;;4.20;100.00
62708;BME280;48769;51.624;5.886;2023-02-13T07:04:56;103491.91;;;4.17;100.00
62708;BME280;48769;51.624;5.886;2023-02-13T07:07:21;103495.34;;;4.16;100.00
62708;BME280;48769;51.624;5.886;2023-02-13T07:09:47;103501.44;;;4.15;100.00
62708;BME280;48769;51.624;5.886;2023-02-13T07:12:12;103502.31;;;4.14;100.00
62708;BME280;48769;51.624;5.886;2023-02-13T07:14:37;103505.81;;;4.16;100.00
62708;BME280;48769;51.624;5.886;2023-02-13T07:17:02;103504.06;;;4.15;100.00
62708;BME280;48769;51.624;5.886;2023-02-13T07:19:28;103525.88;;;4.15;100.00
62708;BME280;48769;51.624;5.886;2023-02-13T07:21:53;103531.97;;;4.16;100.00
62708;BME280;48769;51.624;5.886;2023-02-13T07:24:18;103530.22;;;4.15;100.00
62708;BME280;48769;51.624;5.886;2023-02-13T07:26:43;103532.91;;;4.16;100.00
62708;BME280;48769;51.624;5.886;2023-02-13T07:29:09;103531.97;;;4.16;100.00
62708;BME280;48769;51.624;5.886;2023-02-13T07:31:34;103533.81;;;4.20;100.00
62708;BME280;48769;51.624;5.886;2023-02-13T07:34:00;103529.59;;;4.27;100.00
62708;BME280;48769;51.624;5.886;2023-02-13T07:36:25;103528.91;;;4.38;100.00
62708;BME280;48769;51.624;5.886;2023-02-13T07:38:50;103526.53;;;4.52;100.00
62708;BME280;48769;51.624;5.886;2023-02-13T07:41:16;103526.75;;;4.66;100.00
62708;BME280;48769;51.624;5.886;2023-02-13T07:43:41;103525.59;;;5.05;100.00
62708;BME280;48769;51.624;5.886;2023-02-13T07:46:06;103530.06;;;5.79;100.00
62708;BME280;48769;51.624;5.886;2023-02-13T07:48:31;103528.03;;;6.31;100.00
62708;BME280;48769;51.624;5.886;2023-02-13T07:51:00;103536.81;;;6.35;100.00
62708;BME280;48769;51.624;5.886;2023-02-13T07:53:26;103528.91;;;6.31;100.00
62708;BME280;48769;51.624;5.886;2023-02-13T07:55:51;103537.66;;;6.30;100.00
62708;BME280;48769;51.624;5.886;2023-02-13T07:58:17;103534.78;;;6.11;100.00
62708;BME280;48769;51.624;5.886;2023-02-13T08:00:42;103535.53;;;5.96;100.00
62708;BME280;48769;51.624;5.886;2023-02-13T08:03:08;103532.81;;;5.90;100.00
62708;BME280;48769;51.624;5.886;2023-02-13T08:05:33;103537.09;;;5.83;100.00
62708;BME280;48769;51.624;5.886;2023-02-13T08:07:59;103542.31;;;5.80;100.00
62708;BME280;48769;51.624;5.886;2023-02-13T08:10:24;103540.56;;;5.80;100.00
62708;BME280;48769;51.624;5.886;2023-02-13T08:13:08;103545.81;;;5.80;100.00
62708;BME280;48769;51.624;5.886;2023-02-13T08:15:34;103542.41;;;5.89;100.00
62708;BME280;48769;51.624;5.886;2023-02-13T08:17:59;103540.13;;;6.15;100.00
62708;BME280;48769;51.624;5.886;2023-02-13T08:20:24;103538.34;;;6.14;100.00
62708;BME280;48769;51.624;5.886;2023-02-13T08:22:49;103535.47;;;6.83;100.00
62708;BME280;48769;51.624;5.886;2023-02-13T08:25:15;103537.88;;;8.81;100.00
62708;BME280;48769;51.624;5.886;2023-02-13T08:27:40;103545.75;;;10.69;100.00
62708;BME280;48769;51.624;5.886;2023-02-13T08:30:06;103537.41;;;11.87;100.00
62708;BME280;48769;51.624;5.886;2023-02-13T08:32:31;103531.69;;;12.71;100.00
62708;BME280;48769;51.624;5.886;2023-02-13T08:34:57;103533.06;;;13.40;100.00
62708;BME280;48769;51.624;5.886;2023-02-13T08:37:22;103535.59;;;13.86;100.00
62708;BME280;48769;51.624;5.886;2023-02-13T08:39:47;103531.13;;;14.27;100.00
62708;BME280;48769;51.624;5.886;2023-02-13T08:42:12;103535.31;;;14.73;100.00
62708;BME280;48769;51.624;5.886;2023-02-13T08:44:38;103530.41;;;15.54;100.00
62708;BME280;48769;51.624;5.886;2023-02-13T08:47:05;103525.41;;;16.01;100.00
62708;BME280;48769;51.624;5.886;2023-02-13T08:49:30;103518.19;;;16.33;100.00
62708;BME280;48769;51.624;5.886;2023-02-13T08:51:56;103524.06;;;16.69;100.00
62708;BME280;48769;51.624;5.886;2023-02-13T08:54:21;103509.72;;;17.22;98.93
62708;BME280;48769;51.624;5.886;2023-02-13T08:56:46;103526.00;;;17.16;100.00
62708;BME280;48769;51.624;5.886;2023-02-13T08:59:12;103512.56;;;17.42;97.99
62708;BME280;48769;51.624;5.886;2023-02-13T09:01:37;103496.09;;;17.98;88.78
62708;BME280;48769;51.624;5.886;2023-02-13T09:04:02;103491.69;;;17.74;81.28
62708;BME280;48769;51.624;5.886;2023-02-13T09:06:27;103507.16;;;17.89;86.27
62708;BME280;48769;51.624;5.886;2023-02-13T09:08:53;103494.97;;;17.82;78.21
62708;BME280;48769;51.624;5.886;2023-02-13T09:11:18;103505.16;;;18.16;85.31
62708;BME280;48769;51.624;5.886;2023-02-13T09:13:46;103501.50;;;19.02;79.99
62708;BME280;48769;51.624;5.886;2023-02-13T09:16:12;103492.28;;;19.28;74.33
62708;BME280;48769;51.624;5.886;2023-02-13T09:18:37;103489.63;;;18.89;64.54
62708;BME280;48769;51.624;5.886;2023-02-13T09:21:04;103503.84;;;19.10;70.53
62708;BME280;48769;51.624;5.886;2023-02-13T09:23:30;103498.38;;;19.51;67.37
62708;BME280;48769;51.624;5.886;2023-02-13T09:25:57;103506.78;;;20.00;67.75
62708;BME280;48769;51.624;5.886;2023-02-13T09:28:22;103481.81;;;19.98;58.44
62708;BME280;48769;51.624;5.886;2023-02-13T09:30:48;103504.41;;;18.77;65.73
62708;BME280;48769;51.624;5.886;2023-02-13T09:33:13;103511.59;;;18.55;66.82
62708;BME280;48769;51.624;5.886;2023-02-13T09:35:38;103500.94;;;18.75;65.37
62708;BME280;48769;51.624;5.886;2023-02-13T09:38:06;103520.34;;;18.16;69.34
62708;BME280;48769;51.624;5.886;2023-02-13T09:40:34;103505.34;;;17.21;69.93
62708;BME280;48769;51.624;5.886;2023-02-13T09:43:06;103504.88;;;17.33;70.31
62708;BME280;48769;51.624;5.886;2023-02-13T09:45:32;103514.06;;;17.26;71.60
62708;BME280;48769;51.624;5.886;2023-02-13T09:47:58;103515.81;;;17.02;71.93
62708;BME280;48769;51.624;5.886;2023-02-13T09:50:24;103510.88;;;16.91;74.16
62708;BME280;48769;51.624;5.886;2023-02-13T09:52:52;103501.66;;;16.75;71.75
62708;BME280;48769;51.624;5.886;2023-02-13T09:55:19;103511.28;;;16.79;74.46
62708;BME280;48769;51.624;5.886;2023-02-13T09:57:52;103508.91;;;16.70;70.14
62708;BME280;48769;51.624;5.886;2023-02-13T10:00:38;103508.44;;;16.58;70.60
62708;BME280;48769;51.624;5.886;2023-02-13T10:05:52;103522.13;;;15.63;76.98
62708;BME280;48769;51.624;5.886;2023-02-13T10:16:20;103532.25;;;13.36;85.65
62708;BME280;48769;51.624;5.886;2023-02-13T10:21:11;103532.06;;;13.45;91.46
62708;BME280;48769;51.624;5.886;2023-02-13T10:23:43;103532.34;;;13.73;87.91
62708;BME280;48769;51.624;5.886;2023-02-13T10:26:18;103529.19;;;13.56;87.25
62708;BME280;48769;51.624;5.886;2023-02-13T10:28:55;103530.41;;;13.82;88.25
62708;BME280;48769;51.624;5.886;2023-02-13T10:31:41;103528.81;;;14.12;83.34
62708;BME280;48769;51.624;5.886;2023-02-13T10:34:13;103529.28;;;14.66;82.68
62708;BME280;48769;51.624;5.886;2023-02-13T10:36:39;103521.50;;;14.91;79.72
62708;BME280;48769;51.624;5.886;2023-02-13T10:41:35;103519.81;;;14.56;80.25
62708;BME280;48769;51.624;5.886;2023-02-13T10:46:47;103518.19;;;14.12;83.00
62708;BME280;48769;51.624;5.886;2023-02-13T10:49:40;103524.00;;;13.50;85.79
62708;BME280;48769;51.624;5.886;2023-02-13T10:52:10;103521.78;;;14.09;86.77
62708;BME280;48769;51.624;5.886;2023-02-13T10:54:49;103513.34;;;14.99;80.29
62708;BME280;48769;51.624;5.886;2023-02-13T10:57:21;103515.38;;;15.20;79.71
62708;BME280;48769;51.624;5.886;2023-02-13T11:02:27;103525.22;;;14.14;85.87
62708;BME280;48769;51.624;5.886;2023-02-13T11:05:00;103517.41;;;14.44;85.06
62708;BME280;48769;51.624;5.886;2023-02-13T11:07:29;103508.16;;;14.60;80.89
62708;BME280;48769;51.624;5.886;2023-02-13T11:09:56;103505.03;;;14.43;81.39
62708;BME280;48769;51.624;5.886;2023-02-13T11:12:23;103505.91;;;14.43;82.81
62708;BME280;48769;51.624;5.886;2023-02-13T11:14:53;103506.28;;;14.28;81.78
62708;BME280;48769;51.624;5.886;2023-02-13T11:17:18;103499.78;;;14.76;82.16
62708;BME280;48769;51.624;5.886;2023-02-13T11:19:51;103488.88;;;15.47;79.30
62708;BME280;48769;51.624;5.886;2023-02-13T11:22:51;103489.16;;;15.66;77.73
62708;BME280;48769;51.624;5.886;2023-02-13T11:25:19;103473.09;;;15.71;74.11
62708;BME280;48769;51.624;5.886;2023-02-13T11:27:46;103476.00;;;15.61;73.05
62708;BME280;48769;51.624;5.886;2023-02-13T11:32:58;103457.69;;;17.09;70.87
62708;BME280;48769;51.624;5.886;2023-02-13T11:35:28;103455.97;;;17.31;66.37
62708;BME280;48769;51.624;5.886;2023-02-13T11:38:09;103460.47;;;16.04;69.62
62708;BME280;48769;51.624;5.886;2023-02-13T11:40:35;103455.94;;;16.84;69.21
62708;BME280;48769;51.624;5.886;2023-02-13T11:43:00;103433.66;;;16.85;67.93
62708;BME280;48769;51.624;5.886;2023-02-13T11:45:26;103431.00;;;16.85;66.99
62708;BME280;48769;51.624;5.886;2023-02-13T11:47:52;103440.56;;;17.38;68.52
62708;BME280;48769;51.624;5.886;2023-02-13T11:52:44;103429.03;;;18.03;63.13
62708;BME280;48769;51.624;5.886;2023-02-13T11:55:24;103419.13;;;17.85;61.10
62708;BME280;48769;51.624;5.886;2023-02-13T11:57:57;103425.66;;;17.54;64.41
62708;BME280;48769;51.624;5.886;2023-02-13T12:02:54;103439.88;;;16.34;67.63
62708;BME280;48769;51.624;5.886;2023-02-13T12:05:23;103436.56;;;15.74;68.67
62708;BME280;48769;51.624;5.886;2023-02-13T12:07:49;103440.00;;;16.04;69.23
62708;BME280;48769;51.624;5.886;2023-02-13T12:12:44;103427.94;;;16.71;69.71
62708;BME280;48769;51.624;5.886;2023-02-13T12:15:22;103426.00;;;16.99;65.89
62708;BME280;48769;51.624;5.886;2023-02-13T12:17:51;103419.28;;;17.13;64.46
62708;BME280;48769;51.624;5.886;2023-02-13T12:20:21;103411.59;;;16.80;63.10
62708;BME280;48769;51.624;5.886;2023-02-13T12:22:57;103423.59;;;16.93;63.96
62708;BME280;48769;51.624;5.886;2023-02-13T12:30:48;103399.91;;;18.17;59.58
62708;BME280;48769;51.624;5.886;2023-02-13T12:41:13;103391.66;;;18.83;57.62
62708;BME280;48769;51.624;5.886;2023-02-13T12:48:52;103366.00;;;19.90;51.21
62708;BME280;48769;51.624;5.886;2023-02-13T12:54:10;103371.25;;;20.61;53.52
62708;BME280;48769;51.624;5.886;2023-02-13T12:59:10;103341.56;;;21.27;46.70
62708;BME280;48769;51.624;5.886;2023-02-13T13:12:13;103339.75;;;22.62;45.82
62708;BME280;48769;51.624;5.886;2023-02-13T13:15:15;103320.25;;;23.15;42.40
62708;BME280;48769;51.624;5.886;2023-02-13T13:18:34;103329.38;;;23.39;41.75
62708;BME280;48769;51.624;5.886;2023-02-13T13:22:52;103321.47;;;23.50;39.50
62708;BME280;48769;51.624;5.886;2023-02-13T13:27:56;103323.69;;;23.71;40.60
62708;BME280;48769;51.624;5.886;2023-02-13T13:30:22;103312.75;;;23.05;37.99
62708;BME280;48769;51.624;5.886;2023-02-13T13:33:13;103330.69;;;22.35;43.07
62708;BME280;48769;51.624;5.886;2023-02-13T13:35:36;103314.81;;;22.16;41.74
62708;BME280;48769;51.624;5.886;2023-02-13T13:38:14;103315.72;;;21.40;43.70
62708;BME280;48769;51.624;5.886;2023-02-13T13:40:45;103324.81;;;20.74;44.71
62708;BME280;48769;51.624;5.886;2023-02-13T13:46:03;103327.53;;;19.35;48.55
62708;BME280;48769;51.624;5.886;2023-02-13T13:51:16;103325.69;;;18.81;50.99
62708;BME280;48769;51.624;5.886;2023-02-13T13:56:31;103319.84;;;18.33;51.74
62708;BME280;48769;51.624;5.886;2023-02-13T13:59:18;103321.31;;;17.99;53.23
62708;BME280;48769;51.624;5.886;2023-02-13T14:01:43;103326.06;;;17.71;53.87
62708;BME280;48769;51.624;5.886;2023-02-13T14:04:59;103326.72;;;17.34;55.83
62708;BME280;48769;51.624;5.886;2023-02-13T14:11:51;103317.84;;;17.33;56.44
62708;BME280;48769;51.624;5.886;2023-02-13T14:16:51;103326.09;;;17.05;57.46
62708;BME280;48769;51.624;5.886;2023-02-13T14:21:52;103310.91;;;16.84;57.86
62708;BME280;48769;51.624;5.886;2023-02-13T14:24:18;103321.75;;;16.79;59.51
62708;BME280;48769;51.624;5.886;2023-02-13T14:26:56;103319.22;;;16.76;60.03
62708;BME280;48769;51.624;5.886;2023-02-13T14:29:25;103312.03;;;16.78;58.84
62708;BME280;48769;51.624;5.886;2023-02-13T14:32:06;103315.75;;;17.19;58.96
62708;BME280;48769;51.624;5.886;2023-02-13T14:34:33;103309.22;;;17.26;58.31
62708;BME280;48769;51.624;5.886;2023-02-13T14:39:31;103300.34;;;16.80;58.67
62708;BME280;48769;51.624;5.886;2023-02-13T14:41:59;103309.06;;;16.37;58.44
62708;BME280;48769;51.624;5.886;2023-02-13T14:44:31;103311.16;;;16.52;59.11
62708;BME280;48769;51.624;5.886;2023-02-13T14:46:59;103308.38;;;16.55;59.60
62708;BME280;48769;51.624;5.886;2023-02-13T14:49:26;103300.91;;;16.65;58.62
62708;BME280;48769;51.624;5.886;2023-02-13T14:51:56;103300.31;;;16.33;58.28
62708;BME280;48769;51.624;5.886;2023-02-13T14:54:25;103300.72;;;16.46;58.39
62708;BME280;48769;51.624;5.886;2023-02-13T14:56:52;103297.53;;;16.11;58.50
62708;BME280;48769;51.624;5.886;2023-02-13T14:59:20;103294.72;;;16.16;59.28
62708;BME280;48769;51.624;5.886;2023-02-13T15:01:51;103299.44;;;16.08;59.11
62708;BME280;48769;51.624;5.886;2023-02-13T15:04:19;103296.06;;;16.28;59.78
62708;BME280;48769;51.624;5.886;2023-02-13T15:06:46;103288.66;;;16.36;58.17
62708;BME280;48769;51.624;5.886;2023-02-13T15:09:16;103297.72;;;16.32;59.54
62708;BME280;48769;51.624;5.886;2023-02-13T15:11:43;103295.28;;;16.24;59.44
62708;BME280;48769;51.624;5.886;2023-02-13T15:14:16;103294.72;;;16.16;59.80